• Join FlightAware (Why Join?)
  • Login
  • US Flag 
09:57AM EST


 

Airport Tracker/Info


-or-


 

Live Flight TrackerFlight Track Log ✈ JBU1733 ✈ 20-Aug-2013 ✈ KBTV - KJFK

Flight Track Log - Related Links

Times and Time Zones

All times are in EDT time to prevent confusion due to time zone crossing. See the JBU1733 flight status page for this flight to view local times or setup timezone preferences in your user account.

Time Position Orientation Groundspeed Altitude Reporting Facility
EDT Latitude Longitude Course Direction KTS MPH feet Rate Location/Type
06:53PM 44.3844 -73.1197 196° South 201 231 3,700  Level Boston Center
06:54PM 44.2175 -73.2331 190° South  Level FlightAware Approximate
06:54PM 44.3178 -73.1075 173° South 231 266 6,200  Level Boston Center
06:55PM 44.1380 -73.2733 195° South  Level FlightAware Approximate
06:55PM 44.2344 -73.0919 172° South 269 310 9,300  Level Boston Center
06:56PM 44.0552 -73.3038 194° South  Level FlightAware Approximate
06:56PM 44.1575 -73.0853 176° South 279 321 11,800  Level Boston Center
06:57PM 43.9720 -73.3316 194° South  Level FlightAware Approximate
06:57PM 44.0781 -73.1250 200° South 290 334 13,500  Level Boston Center
06:58PM 43.8891 -73.3611 196° South  Level FlightAware Approximate
06:58PM 43.9922 -73.1703 201° Southwest 321 369 15,700  Level Boston Center
06:59PM 43.9292 -73.2500 222° Southwest 320 368 17,700 1,860 Climbing Boston Center
07:00PM 43.9158 -73.3739 262° West 304 350 19,500 1,800 Climbing Boston Center
07:01PM 43.9042 -73.5033 263° West 330 380 21,400 1,740 Climbing Boston Center
07:02PM 43.8511 -73.6089 235° Southwest 341 392 23,000 1,560 Climbing Boston Center
07:03PM 43.7489 -73.6356 191° South 337 388 24,600 1,320 Climbing Boston Center
07:04PM 43.6528 -73.6481 185° South 360 414 25,700 840 Climbing Boston Center
07:05PM 43.5358 -73.6658 186° South 400 460 26,300 600 Climbing Boston Center
07:06PM 43.4106 -73.6861 187° South 436 502 26,900 780 Climbing Boston Center
07:07PM 43.2853 -73.7064 187° South 455 524 27,900 540 Climbing Boston Center
07:08PM 43.1411 -73.7347 188° South 479 551 28,000  Climbing Boston Center
07:09PM 43.0117 -73.7606 188° South 479 551 28,000  Level Boston Center
07:10PM 42.8844 -73.7803 186° South 479 551 28,000  Level Boston Center
07:11PM 42.7528 -73.8031 187° South 473 544 28,000  Level Boston Center
07:12PM 42.6256 -73.8086 182° South 473 544 28,000  Level Boston Center
07:13PM 42.5150 -73.8119 181° South 460 529 28,000  Level Boston Center
07:14PM 42.3858 -73.8175 182° South 460 529 28,000  Level Boston Center
07:15PM 42.2586 -73.8175 180° South 460 529 28,000  Level Boston Center
07:16PM 42.1333 -73.8314 185° South 460 529 28,000  Level Boston Center
07:17PM 42.0058 -73.8706 193° South 465 535 28,000 -360 Level Boston Center
07:19PM 41.7581 -73.9467 193° South 467 537 27,100 -1,140 Descending New York Center
07:20PM 41.6383 -73.9853 194° South 462 532 24,700 -2,400 Descending New York Center
07:21PM 41.5272 -74.0189 193° South 441 507 22,400 -2,160 Descending New York Center
07:22PM 41.4136 -74.0547 193° South 427 491 20,400 -1,200 Descending New York Center
07:23PM 41.3006 -74.0767 188° South 414 476 20,000 -240 Descending New York Center
07:24PM 41.1919 -74.0908 186° South 414 476 20,000 -300 Level New York Center
07:25PM 41.0789 -74.1100 187° South 414 476 19,500 -540 Descending New York Center
07:26PM 40.9597 -74.1261 186° South 398 458 19,000 -420 Descending New York Center
07:27PM 40.8692 -74.0886 163° South 370 426 18,700 -1,260 Descending New York Center
07:28PM 40.7542 -74.0283 158° South 395 455 16,500 -2,100 Descending New York Center
07:29PM 40.6667 -73.9531 147° Southeast 395 455 14,600 -1,980 Descending New York Center
07:30PM 40.5878 -73.8700 141° Southeast 372 428 12,600 -1,800 Descending New York Center
07:31PM 40.5150 -73.7794 137° Southeast 367 422 11,000 -1,320 Descending New York Center
07:32PM 40.4506 -73.6892 133° Southeast 355 409 10,000 -1,020 Descending New York Center
07:33PM 40.4553 -73.5806 87° East 284 327 9,000 -1,200 Descending New York Center
07:34PM 40.5067 -73.5197 42° Northeast 219 252 7,600 -1,680 Descending New York Center
07:35PM 40.5767 -73.4681 29° Northeast 234 269 5,700 -1,680 Descending New York Center
07:36PM 40.6361 -73.4239 29° Northeast 264 304 4,300 -900 Descending New York Center
07:37PM 40.7067 -73.4347 353° North 236 272 3,900 -240 Descending New York Center
07:38PM 40.7539 -73.4639 335° Northwest 215 247 3,900 -300 Level New York Center
07:39PM 40.7833 -73.5392 297° West 200 230 3,400 -780 Descending New York Center
07:41PM 40.7833 -73.6333 270° West 190 219 2,000 -600 Descending New York TRACON
07:42PM 40.7500 -73.6833 229° Southwest 177 204 2,000 -300 Level New York TRACON
07:43PM 40.7000 -73.7000 194° South 144 166 1,400 -600 Descending New York TRACON
07:44PM 40.6667 -73.7333 217° Southwest 127 146 800 -600 Descending New York TRACON
07:46PM 40.6398 -73.7789 161° South  Level Estimated